createdAt,value
2022-10-11T00:00:32.986Z,3.30
2022-10-11T00:03:01.921Z,2.97
2022-10-11T00:05:30.381Z,3.27
2022-10-11T00:07:58.677Z,3.07
2022-10-11T00:10:27.011Z,3.10
2022-10-11T00:12:54.899Z,3.60
2022-10-11T00:15:23.539Z,3.20
2022-10-11T00:17:52.908Z,3.30
2022-10-11T00:20:21.126Z,3.30
2022-10-11T00:22:50.202Z,3.40
2022-10-11T00:25:18.720Z,3.13
2022-10-11T00:27:46.870Z,3.37
2022-10-11T00:30:15.381Z,3.03
2022-10-11T00:32:43.390Z,3.10
2022-10-11T00:35:12.571Z,3.07
2022-10-11T00:37:40.600Z,3.00
2022-10-11T00:40:13.798Z,3.30
2022-10-11T00:42:41.716Z,3.30
2022-10-11T00:45:47.109Z,3.97
2022-10-11T00:48:22.616Z,3.07
2022-10-11T00:50:51.991Z,3.07
2022-10-11T00:53:19.867Z,2.87
2022-10-11T00:55:52.332Z,3.20
2022-10-11T00:58:22.274Z,3.10
2022-10-11T01:00:50.681Z,3.03
2022-10-11T01:03:21.409Z,3.10
2022-10-11T01:05:49.833Z,3.50
2022-10-11T01:08:19.599Z,3.57
2022-10-11T01:10:47.628Z,3.27
2022-10-11T01:13:27.343Z,2.80
2022-10-11T01:16:02.214Z,3.10
2022-10-11T01:18:36.289Z,2.90
2022-10-11T01:21:14.443Z,2.90
2022-10-11T01:24:28.133Z,3.00
2022-10-11T01:27:32.197Z,3.27
2022-10-11T01:30:15.872Z,2.63
2022-10-11T01:32:52.170Z,3.23
2022-10-11T01:35:25.977Z,3.10
2022-10-11T01:38:00.888Z,3.13
2022-10-11T01:40:34.862Z,3.23
2022-10-11T01:43:04.905Z,3.07
2022-10-11T01:45:35.677Z,3.20
2022-10-11T01:48:07.026Z,3.50
2022-10-11T01:50:41.594Z,2.57
2022-10-11T01:53:26.358Z,3.33
2022-10-11T01:55:58.734Z,3.10
2022-10-11T01:58:43.585Z,3.23
2022-10-11T02:01:25.620Z,2.90
2022-10-11T02:04:02.489Z,3.23
2022-10-11T02:06:36.715Z,2.83
2022-10-11T02:09:13.301Z,3.07
2022-10-11T02:11:41.233Z,2.97
2022-10-11T02:14:12.377Z,3.40
2022-10-11T02:16:47.496Z,3.30
2022-10-11T02:19:20.687Z,3.27
2022-10-11T02:21:54.043Z,3.10
2022-10-11T02:24:27.230Z,3.23
2022-10-11T02:26:58.441Z,3.13
2022-10-11T02:29:30.397Z,3.50
2022-10-11T02:32:01.612Z,3.57
2022-10-11T02:34:34.466Z,2.87
2022-10-11T02:37:07.427Z,3.23
2022-10-11T02:39:41.010Z,3.33
2022-10-11T02:42:14.970Z,3.10
2022-10-11T02:44:46.421Z,3.00
2022-10-11T02:47:16.130Z,3.33
2022-10-11T02:49:43.951Z,3.23
2022-10-11T02:52:11.763Z,3.50
2022-10-11T02:54:39.620Z,3.30
2022-10-11T02:57:07.443Z,3.70
2022-10-11T02:59:35.283Z,3.03
2022-10-11T03:02:03.199Z,3.50
2022-10-11T03:04:32.487Z,3.23
2022-10-11T03:07:00.327Z,3.20
2022-10-11T03:09:28.273Z,3.17
2022-10-11T03:11:56.084Z,2.83
2022-10-11T03:14:25.088Z,3.00
2022-10-11T03:16:53.043Z,3.30
2022-10-11T03:19:20.855Z,3.40
2022-10-11T03:21:50.066Z,3.27
2022-10-11T03:24:17.975Z,3.10
2022-10-11T03:26:46.028Z,3.33
2022-10-11T03:29:13.868Z,2.97
2022-10-11T03:31:41.740Z,3.40
2022-10-11T03:34:10.058Z,3.37
2022-10-11T03:36:38.108Z,3.03
2022-10-11T03:39:07.547Z,3.30
2022-10-11T03:41:35.362Z,3.00
2022-10-11T03:44:03.176Z,3.27
2022-10-11T03:46:31.621Z,3.10
2022-10-11T03:48:59.526Z,3.40
2022-10-11T03:51:27.488Z,3.27
2022-10-11T03:53:55.470Z,3.53
2022-10-11T03:56:24.985Z,2.93
2022-10-11T03:58:52.803Z,3.20
2022-10-11T04:01:20.883Z,3.67
2022-10-11T04:03:48.730Z,3.27
2022-10-11T04:06:16.611Z,3.40
2022-10-11T04:08:44.657Z,3.20
2022-10-11T04:11:13.503Z,3.27
2022-10-11T04:13:42.776Z,3.10
2022-10-11T04:16:10.739Z,2.90
2022-10-11T04:18:38.659Z,3.13
2022-10-11T04:21:06.919Z,3.47
2022-10-11T04:23:35.392Z,3.23
2022-10-11T04:26:07.444Z,3.80
2022-10-11T04:28:36.638Z,3.17
2022-10-11T04:31:07.836Z,3.50
2022-10-11T04:33:35.903Z,3.60
2022-10-11T04:36:04.493Z,3.37
2022-10-11T04:38:32.584Z,3.70
2022-10-11T04:41:08.098Z,3.63
2022-10-11T04:43:36.202Z,3.40
2022-10-11T04:46:06.122Z,2.97
2022-10-11T04:48:34.680Z,3.83
2022-10-11T04:51:02.577Z,3.10
2022-10-11T04:53:30.527Z,3.37
2022-10-11T04:56:01.654Z,3.60
2022-10-11T04:58:30.411Z,3.37
2022-10-11T05:00:58.301Z,3.63
2022-10-11T05:03:28.352Z,3.93
2022-10-11T05:05:56.359Z,3.67
2022-10-11T05:08:24.757Z,3.50
2022-10-11T05:10:58.154Z,3.50
2022-10-11T05:13:26.584Z,3.67
2022-10-11T05:15:54.848Z,4.20
2022-10-11T05:18:22.982Z,3.60
2022-10-11T05:20:59.928Z,4.00
2022-10-11T05:23:28.240Z,3.90
2022-10-11T05:25:56.069Z,4.07
2022-10-11T05:28:24.108Z,3.50
2022-10-11T05:30:52.150Z,4.13
2022-10-11T05:33:20.004Z,3.57
2022-10-11T05:35:47.896Z,3.80
2022-10-11T05:38:17.291Z,3.70
2022-10-11T05:40:45.223Z,4.57
2022-10-11T05:43:13.398Z,3.97
2022-10-11T05:45:44.257Z,3.53
2022-10-11T05:48:12.712Z,3.80
2022-10-11T05:50:40.628Z,3.97
2022-10-11T05:53:08.547Z,3.87
2022-10-11T05:55:39.180Z,3.30
2022-10-11T05:58:08.539Z,4.33
2022-10-11T06:00:38.017Z,3.70
2022-10-11T06:03:06.864Z,4.07
2022-10-11T06:05:36.195Z,4.13
2022-10-11T06:08:04.081Z,3.73
2022-10-11T06:10:31.943Z,3.47
2022-10-11T06:13:01.394Z,4.30
2022-10-11T06:15:29.418Z,3.73
2022-10-11T06:17:58.000Z,4.23
2022-10-11T06:20:26.157Z,4.10
2022-10-11T06:22:54.199Z,4.00
2022-10-11T06:25:22.108Z,4.00
2022-10-11T06:27:50.077Z,4.03
2022-10-11T06:30:19.370Z,4.33
2022-10-11T06:32:47.402Z,4.27
2022-10-11T06:35:15.328Z,4.10
2022-10-11T06:37:43.182Z,3.83
2022-10-11T06:40:12.235Z,3.80
2022-10-11T06:42:40.164Z,4.37
2022-10-11T06:45:09.237Z,4.07
2022-10-11T06:47:38.432Z,4.10
2022-10-11T06:50:07.001Z,3.73
2022-10-11T06:52:34.907Z,4.00
2022-10-11T06:55:02.737Z,3.90
2022-10-11T06:57:30.622Z,3.63
2022-10-11T06:59:58.569Z,3.63
2022-10-11T07:02:26.436Z,3.40
2022-10-11T07:04:55.821Z,3.53
2022-10-11T07:07:23.695Z,3.50
2022-10-11T07:09:51.517Z,3.43
2022-10-11T07:12:19.529Z,4.00
2022-10-11T07:14:47.401Z,3.63
2022-10-11T07:17:15.276Z,4.10
2022-10-11T07:19:43.199Z,3.70
2022-10-11T07:22:12.458Z,3.70
2022-10-11T07:24:40.283Z,3.40
2022-10-11T07:27:08.261Z,3.20
2022-10-11T07:29:36.125Z,4.73
2022-10-11T07:32:04.082Z,3.97
2022-10-11T07:34:32.041Z,3.90
2022-10-11T07:36:59.866Z,4.23
2022-10-11T07:39:30.973Z,4.00
2022-10-11T07:41:59.352Z,5.10
2022-10-11T07:44:27.488Z,4.10
2022-10-11T07:46:55.498Z,3.93
2022-10-11T07:49:23.569Z,3.50
2022-10-11T07:51:51.408Z,4.03
2022-10-11T07:54:19.434Z,4.13
2022-10-11T07:56:48.997Z,3.90
2022-10-11T07:59:16.874Z,3.93
2022-10-11T08:01:44.755Z,3.97
2022-10-11T08:04:12.913Z,4.40
2022-10-11T08:06:40.931Z,3.83
2022-10-11T08:09:09.334Z,3.40
2022-10-11T08:11:38.942Z,3.70
2022-10-11T08:14:11.326Z,3.63
2022-10-11T08:16:40.962Z,3.63
2022-10-11T08:19:09.102Z,4.17
2022-10-11T08:21:37.278Z,4.70
2022-10-11T08:24:07.019Z,4.03
2022-10-11T08:26:35.479Z,4.20
2022-10-11T08:29:04.028Z,3.70
2022-10-11T08:31:34.417Z,3.73
2022-10-11T08:34:02.784Z,3.67
2022-10-11T08:36:30.620Z,3.37
2022-10-11T08:38:58.617Z,3.90
2022-10-11T08:41:30.824Z,3.60
2022-10-11T08:44:15.717Z,3.43
2022-10-11T08:46:50.054Z,4.27
2022-10-11T08:49:20.520Z,3.37
2022-10-11T08:51:52.160Z,4.67
2022-10-11T08:54:24.417Z,3.50
2022-10-11T08:56:52.756Z,3.67
2022-10-11T08:59:30.293Z,3.90
2022-10-11T09:02:05.075Z,3.40
2022-10-11T09:04:33.522Z,3.90
2022-10-11T09:07:08.459Z,3.93
2022-10-11T09:10:02.523Z,3.77
2022-10-11T09:12:41.161Z,3.57
2022-10-11T09:15:19.152Z,3.73
2022-10-11T09:18:03.300Z,3.80
2022-10-11T09:20:53.198Z,3.50
2022-10-11T09:23:39.597Z,3.40
2022-10-11T09:26:13.448Z,3.70
2022-10-11T09:28:51.734Z,3.20
2022-10-11T09:31:19.941Z,3.73
2022-10-11T09:33:51.216Z,3.90
2022-10-11T09:36:29.833Z,4.20
2022-10-11T09:39:08.579Z,4.77
2022-10-11T09:41:42.787Z,3.80
2022-10-11T09:44:21.862Z,3.50
2022-10-11T09:46:51.067Z,3.13
2022-10-11T09:49:22.776Z,4.00
2022-10-11T09:51:54.923Z,3.90
2022-10-11T09:54:28.152Z,3.57
2022-10-11T09:56:56.217Z,4.03
2022-10-11T09:59:29.039Z,4.90
2022-10-11T10:02:27.390Z,3.90
2022-10-11T10:05:17.351Z,3.47
2022-10-11T10:08:05.118Z,3.37
2022-10-11T10:10:38.703Z,3.63
2022-10-11T10:13:18.124Z,3.57
2022-10-11T10:15:48.190Z,3.60
2022-10-11T10:18:23.874Z,3.00
2022-10-11T10:20:56.099Z,3.10
2022-10-11T10:23:27.811Z,3.90
2022-10-11T10:26:12.502Z,3.53
2022-10-11T10:28:55.032Z,3.27
2022-10-11T10:31:24.638Z,3.27
2022-10-11T10:33:55.665Z,3.47
2022-10-11T10:36:29.904Z,3.50
2022-10-11T10:39:02.914Z,3.67
2022-10-11T10:41:31.055Z,3.20
2022-10-11T10:44:01.162Z,3.50
2022-10-11T10:46:46.451Z,3.57
2022-10-11T10:49:41.599Z,3.60
2022-10-11T10:52:30.654Z,3.30
2022-10-11T10:55:04.815Z,4.47
2022-10-11T10:57:42.168Z,3.27
2022-10-11T11:00:16.935Z,2.80
2022-10-11T11:02:51.303Z,3.27
2022-10-11T11:05:28.638Z,4.07
2022-10-11T11:08:09.157Z,4.50
2022-10-11T11:10:42.126Z,4.00
2022-10-11T11:13:20.878Z,3.83
2022-10-11T11:15:59.436Z,2.93
2022-10-11T11:18:36.920Z,2.97
2022-10-11T11:21:24.554Z,3.53
2022-10-11T11:24:00.361Z,3.40
2022-10-11T11:26:37.822Z,3.83
2022-10-11T11:29:22.537Z,3.40
2022-10-11T11:32:12.010Z,5.67
2022-10-11T11:34:45.517Z,3.37
2022-10-11T11:37:24.623Z,3.23
2022-10-11T11:39:58.294Z,3.40
2022-10-11T11:42:31.110Z,4.00
2022-10-11T11:45:05.390Z,2.90
2022-10-11T11:47:37.882Z,3.00
2022-10-11T11:50:22.726Z,4.20
2022-10-11T11:52:53.869Z,3.60
2022-10-11T11:55:31.073Z,4.00
2022-10-11T11:58:08.697Z,3.87
2022-10-11T12:00:43.469Z,3.10
2022-10-11T12:03:16.836Z,44.63
2022-10-11T12:06:20.715Z,14.97
2022-10-11T12:08:50.558Z,7.80
2022-10-11T12:11:25.169Z,7.07
2022-10-11T12:13:55.063Z,15.57
2022-10-11T12:16:23.464Z,5.53
2022-10-11T12:18:55.845Z,6.30
2022-10-11T12:21:30.961Z,6.07
2022-10-11T12:24:00.182Z,10.83
2022-10-11T12:26:44.328Z,5.97
2022-10-11T12:29:29.071Z,8.87
2022-10-11T12:32:55.102Z,6.93
2022-10-11T12:36:08.259Z,6.10
2022-10-11T12:38:41.910Z,4.80
2022-10-11T12:41:53.825Z,4.40
2022-10-11T12:44:24.622Z,3.93
2022-10-11T12:47:26.862Z,6.33
2022-10-11T12:50:11.685Z,6.77
2022-10-11T12:52:51.196Z,4.17
2022-10-11T12:55:39.648Z,4.60
2022-10-11T12:58:28.309Z,5.00
2022-10-11T13:01:17.556Z,8.33
2022-10-11T13:03:49.392Z,7.17
2022-10-11T13:06:20.669Z,3.03
2022-10-11T13:08:53.379Z,3.93
2022-10-11T13:11:23.658Z,3.17
2022-10-11T13:13:56.184Z,4.97
2022-10-11T13:16:26.000Z,4.20
2022-10-11T13:18:58.231Z,3.73
2022-10-11T13:21:31.986Z,3.83
2022-10-11T13:24:02.622Z,3.50
2022-10-11T13:26:32.645Z,3.53
2022-10-11T13:29:02.085Z,3.43
2022-10-11T13:31:30.192Z,3.83
2022-10-11T13:34:00.352Z,3.67
2022-10-11T13:36:28.884Z,2.80
2022-10-11T13:39:00.006Z,3.07
2022-10-11T13:41:30.686Z,3.33
2022-10-11T13:44:01.216Z,3.17
2022-10-11T13:46:31.764Z,3.57
2022-10-11T13:49:01.441Z,3.33
2022-10-11T13:51:32.784Z,2.90
2022-10-11T13:54:03.723Z,2.83
2022-10-11T13:56:36.054Z,3.70
2022-10-11T13:59:05.809Z,3.20
2022-10-11T14:01:40.732Z,2.97
2022-10-11T14:04:11.308Z,2.50
2022-10-11T14:06:45.424Z,2.70
2022-10-11T14:09:20.932Z,2.47
2022-10-11T14:11:51.132Z,2.30
2022-10-11T14:14:48.841Z,2.37
2022-10-11T14:17:19.664Z,2.20
2022-10-11T14:19:49.674Z,2.20
2022-10-11T14:22:18.877Z,2.93
2022-10-11T14:24:49.387Z,2.67
2022-10-11T14:27:23.473Z,2.63
2022-10-11T14:30:24.103Z,2.70
2022-10-11T14:32:47.420Z,2.40
2022-10-11T14:35:18.181Z,2.40
2022-10-11T14:37:46.568Z,2.57
2022-10-11T14:40:17.367Z,2.60
2022-10-11T14:42:45.393Z,3.07
2022-10-11T14:45:15.010Z,2.57
2022-10-11T14:47:43.383Z,2.87
2022-10-11T14:50:36.595Z,2.90
2022-10-11T14:53:05.903Z,2.83
2022-10-11T14:55:33.865Z,2.80
2022-10-11T14:58:01.922Z,2.80
2022-10-11T15:00:33.183Z,3.00
2022-10-11T15:03:01.200Z,2.90
2022-10-11T15:05:33.938Z,2.50
2022-10-11T15:08:02.511Z,2.90
2022-10-11T15:10:34.732Z,3.00
2022-10-11T15:13:03.470Z,2.40
2022-10-11T15:15:35.665Z,2.57
2022-10-11T15:18:05.711Z,3.00
2022-10-11T15:20:36.618Z,2.20
2022-10-11T15:23:06.518Z,3.00
2022-10-11T15:25:34.737Z,3.20
2022-10-11T15:28:02.786Z,2.90
2022-10-11T15:30:38.543Z,2.80
2022-10-11T15:33:08.131Z,3.20
2022-10-11T15:35:36.112Z,2.67
2022-10-11T15:38:04.043Z,2.90
2022-10-11T15:40:34.858Z,3.10
2022-10-11T15:43:03.162Z,2.50
2022-10-11T15:45:32.961Z,2.87
2022-10-11T15:48:00.866Z,2.37
2022-10-11T15:50:37.987Z,2.70
2022-10-11T15:53:07.928Z,2.87
2022-10-11T15:55:39.668Z,3.07
2022-10-11T15:58:07.907Z,3.17
2022-10-11T16:00:37.179Z,3.90
2022-10-11T16:03:06.045Z,3.60
2022-10-11T16:05:34.041Z,3.27
2022-10-11T16:08:02.006Z,2.93
2022-10-11T16:10:30.053Z,3.10
2022-10-11T16:12:58.202Z,2.53
2022-10-11T16:15:26.300Z,3.20
2022-10-11T16:17:55.876Z,3.00
2022-10-11T16:20:25.689Z,2.67
2022-10-11T16:22:55.656Z,3.17
2022-10-11T16:25:24.074Z,3.07
2022-10-11T16:27:52.815Z,2.90
2022-10-11T16:30:21.656Z,3.00
2022-10-11T16:32:49.604Z,3.10
2022-10-11T16:35:18.946Z,3.07
2022-10-11T16:37:47.100Z,3.13
2022-10-11T16:40:17.636Z,3.03
2022-10-11T16:42:46.643Z,3.07
2022-10-11T16:45:16.177Z,3.63
2022-10-11T16:47:45.199Z,3.33
2022-10-11T16:50:14.129Z,3.03
2022-10-11T16:52:43.428Z,3.03
2022-10-11T16:55:11.577Z,3.33
2022-10-11T16:57:39.824Z,3.17
2022-10-11T17:00:09.925Z,3.10
2022-10-11T17:02:38.051Z,3.40
2022-10-11T17:05:06.773Z,3.20
2022-10-11T17:07:34.672Z,3.33
2022-10-11T17:10:06.433Z,3.47
2022-10-11T17:12:37.218Z,3.43
2022-10-11T17:15:06.884Z,3.20
2022-10-11T17:17:35.415Z,3.40
2022-10-11T17:20:03.666Z,3.07
2022-10-11T17:22:31.717Z,3.43
2022-10-11T17:25:01.455Z,3.17
2022-10-11T17:27:30.722Z,4.13
2022-10-11T17:29:58.719Z,4.17
2022-10-11T17:32:26.697Z,4.67
2022-10-11T17:34:55.275Z,4.50
2022-10-11T17:37:23.235Z,4.20
2022-10-11T17:39:51.086Z,4.43
2022-10-11T17:42:18.971Z,4.70
2022-10-11T17:44:48.380Z,4.07
2022-10-11T17:47:16.353Z,4.47
2022-10-11T17:49:44.312Z,4.57
2022-10-11T17:52:12.204Z,4.57
2022-10-11T17:54:40.470Z,4.50
2022-10-11T17:57:08.344Z,4.17
2022-10-11T17:59:36.401Z,4.33
2022-10-11T18:02:05.789Z,4.30
2022-10-11T18:04:33.901Z,4.53
2022-10-11T18:07:02.048Z,4.83
2022-10-11T18:09:30.034Z,4.63
2022-10-11T18:11:57.904Z,4.77
2022-10-11T18:14:25.953Z,4.57
2022-10-11T18:16:53.838Z,4.63
2022-10-11T18:19:23.127Z,4.80
2022-10-11T18:21:51.188Z,4.60
2022-10-11T18:24:19.177Z,4.77
2022-10-11T18:26:47.401Z,6.00
2022-10-11T18:29:15.570Z,5.90
2022-10-11T18:31:43.846Z,4.90
2022-10-11T18:34:13.891Z,5.20
2022-10-11T18:36:43.401Z,4.57
2022-10-11T18:39:14.470Z,4.63
2022-10-11T18:41:44.755Z,4.47
2022-10-11T18:44:15.292Z,4.17
2022-10-11T18:46:43.519Z,4.67
2022-10-11T18:49:11.569Z,4.70
2022-10-11T18:51:41.299Z,4.40
2022-10-11T18:54:16.749Z,5.07
2022-10-11T18:56:48.142Z,5.13
2022-10-11T18:59:16.957Z,4.73
2022-10-11T19:01:46.194Z,5.60
2022-10-11T19:04:16.972Z,4.93
2022-10-11T19:06:47.757Z,4.93
2022-10-11T19:09:21.779Z,4.87
2022-10-11T19:11:51.125Z,4.83
2022-10-11T19:14:21.190Z,4.53
2022-10-11T19:16:51.606Z,4.77
2022-10-11T19:19:21.544Z,4.60
2022-10-11T19:21:49.577Z,4.77
2022-10-11T19:24:20.866Z,4.60
2022-10-11T19:26:49.204Z,4.53
2022-10-11T19:29:19.890Z,5.23
2022-10-11T19:31:50.033Z,4.60
2022-10-11T19:34:18.109Z,4.90
2022-10-11T19:36:46.158Z,5.50
2022-10-11T19:39:16.095Z,5.57
2022-10-11T19:41:45.923Z,5.90
2022-10-11T19:44:14.917Z,5.47
2022-10-11T19:46:51.963Z,5.60
2022-10-11T19:49:22.763Z,5.63
2022-10-11T19:51:51.480Z,4.63
2022-10-11T19:54:20.001Z,5.17
2022-10-11T19:56:49.360Z,5.37
2022-10-11T19:59:17.684Z,5.30
2022-10-11T20:01:52.001Z,4.93
2022-10-11T20:04:51.121Z,4.77
2022-10-11T20:07:08.531Z,4.87
2022-10-11T20:09:36.757Z,5.00
2022-10-11T20:12:06.797Z,5.00
2022-10-11T20:14:35.685Z,4.93
2022-10-11T20:17:04.071Z,4.97
2022-10-11T20:19:32.115Z,6.00
2022-10-11T20:22:00.713Z,5.77
2022-10-11T20:24:32.960Z,5.10
2022-10-11T20:27:01.918Z,6.60
2022-10-11T20:29:31.240Z,6.10
2022-10-11T20:32:00.045Z,5.90
2022-10-11T20:34:28.745Z,6.07
2022-10-11T20:36:56.750Z,5.73
2022-10-11T20:39:24.972Z,6.40
2022-10-11T20:41:52.813Z,5.80
2022-10-11T20:44:20.717Z,6.10
2022-10-11T20:46:50.112Z,6.17
2022-10-11T20:49:19.847Z,5.97
2022-10-11T20:51:47.774Z,6.30
2022-10-11T20:54:17.351Z,7.00
2022-10-11T20:56:45.198Z,6.90
2022-10-11T20:59:13.038Z,7.10
2022-10-11T21:01:42.290Z,6.90
2022-10-11T21:04:19.021Z,6.83
2022-10-11T21:06:47.949Z,7.47
2022-10-11T21:09:17.020Z,7.80
2022-10-11T21:11:45.235Z,7.33
2022-10-11T21:14:13.157Z,7.03
2022-10-11T21:16:41.010Z,7.87
2022-10-11T21:19:09.321Z,8.43
2022-10-11T21:21:38.721Z,7.87
2022-10-11T21:24:07.059Z,8.80
2022-10-11T21:26:35.257Z,8.50
2022-10-11T21:29:04.236Z,8.03
2022-10-11T21:31:34.407Z,8.37
2022-10-11T21:34:02.739Z,8.77
2022-10-11T21:36:30.651Z,8.83
2022-10-11T21:38:59.953Z,8.30
2022-10-11T21:41:30.246Z,8.03
2022-10-11T21:43:59.061Z,7.57
2022-10-11T21:49:17.538Z,7.80
2022-10-11T21:51:45.466Z,8.20
2022-10-11T21:54:14.675Z,8.80
2022-10-11T21:56:42.824Z,8.67
2022-10-11T21:59:12.332Z,9.50
2022-10-11T22:01:40.828Z,9.23
2022-10-11T22:04:09.375Z,8.77
2022-10-11T22:06:37.344Z,9.27
2022-10-11T22:09:06.570Z,10.00
2022-10-11T22:11:36.371Z,9.73
2022-10-11T22:14:05.017Z,10.07
2022-10-11T22:16:34.252Z,10.43
2022-10-11T22:19:02.329Z,9.13
2022-10-11T22:21:30.155Z,9.90
2022-10-11T22:23:57.980Z,9.80
2022-10-11T22:26:29.912Z,10.27
2022-10-11T22:28:59.900Z,9.57
2022-10-11T22:31:29.375Z,9.87
2022-10-11T22:33:58.486Z,9.17
2022-10-11T22:36:27.038Z,9.20
2022-10-11T22:38:55.511Z,8.97
2022-10-11T22:41:23.613Z,8.83
2022-10-11T22:43:51.489Z,9.67
2022-10-11T22:46:20.867Z,9.63
2022-10-11T22:48:48.658Z,9.83
2022-10-11T22:51:16.822Z,9.40
2022-10-11T22:53:44.880Z,9.23
2022-10-11T22:56:12.703Z,9.77
2022-10-11T22:58:40.564Z,9.90
2022-10-11T23:01:09.394Z,9.03
2022-10-11T23:03:38.884Z,8.60
2022-10-11T23:06:07.298Z,9.43
2022-10-11T23:08:35.240Z,9.67
2022-10-11T23:11:07.074Z,8.80
2022-10-11T23:13:34.987Z,8.67
2022-10-11T23:16:07.207Z,8.87
2022-10-11T23:18:35.133Z,9.23
2022-10-11T23:21:05.023Z,9.17
2022-10-11T23:23:33.037Z,9.27
2022-10-11T23:26:05.627Z,8.83
2022-10-11T23:28:33.677Z,9.47
2022-10-11T23:31:01.685Z,9.23
2022-10-11T23:33:30.342Z,9.07
2022-10-11T23:35:58.375Z,9.53
2022-10-11T23:38:27.596Z,9.70
2022-10-11T23:40:55.571Z,10.03
2022-10-11T23:43:24.862Z,8.87
2022-10-11T23:45:54.931Z,9.27
2022-10-11T23:48:22.998Z,9.47
2022-10-11T23:50:50.963Z,9.10
2022-10-11T23:53:19.001Z,9.37
2022-10-11T23:55:48.543Z,9.47
2022-10-11T23:58:16.544Z,9.20
